createdAt,value
2023-01-02T00:01:45.104Z,4.07
2023-01-02T00:04:47.895Z,2.90
2023-01-02T00:07:50.401Z,3.33
2023-01-02T00:10:53.273Z,5.20
2023-01-02T00:13:57.405Z,2.83
2023-01-02T00:16:59.954Z,5.10
2023-01-02T00:20:02.781Z,5.10
2023-01-02T00:23:05.469Z,4.85
2023-01-02T00:26:08.512Z,6.47
2023-01-02T00:29:14.341Z,6.63
2023-01-02T00:32:17.052Z,4.33
2023-01-02T00:35:19.842Z,6.00
2023-01-02T00:38:22.648Z,4.30
2023-01-02T00:41:25.317Z,7.22
2023-01-02T00:44:29.253Z,6.30
2023-01-02T00:47:31.915Z,6.97
2023-01-02T00:50:34.482Z,6.50
2023-01-02T00:53:37.575Z,9.27
2023-01-02T00:56:40.301Z,4.40
2023-01-02T00:59:44.221Z,6.53
2023-01-02T01:02:46.830Z,8.57
2023-01-02T01:05:49.574Z,7.07
2023-01-02T01:08:52.230Z,6.55
2023-01-02T01:11:54.815Z,7.33
2023-01-02T01:14:59.224Z,13.30
2023-01-02T01:18:01.872Z,11.73
2023-01-02T01:21:07.934Z,13.85
2023-01-02T01:24:10.598Z,12.57
2023-01-02T01:27:13.157Z,6.93
2023-01-02T01:30:17.113Z,8.47
2023-01-02T01:33:19.742Z,12.37
2023-01-02T01:36:23.859Z,7.47
2023-01-02T01:39:26.472Z,6.47
2023-01-02T01:42:33.258Z,5.90
2023-01-02T01:45:37.272Z,7.90
2023-01-02T01:48:39.954Z,8.67
2023-01-02T01:51:46.129Z,8.27
2023-01-02T01:54:53.417Z,6.60
2023-01-02T01:57:58.075Z,7.07
2023-01-02T02:01:02.729Z,6.00
2023-01-02T02:04:05.664Z,5.70
2023-01-02T02:07:08.418Z,10.10
2023-01-02T02:10:12.745Z,11.02
2023-01-02T02:13:15.473Z,5.37
2023-01-02T02:16:29.107Z,6.50
2023-01-02T02:20:00.966Z,6.38
2023-01-02T02:23:33.763Z,4.67
2023-01-02T02:27:00.805Z,9.40
2023-01-02T02:30:12.361Z,6.13
2023-01-02T02:33:24.953Z,4.40
2023-01-02T02:36:30.876Z,5.43
2023-01-02T02:39:39.240Z,4.63
2023-01-02T02:42:46.677Z,7.57
2023-01-02T02:45:56.473Z,5.57
2023-01-02T02:49:05.341Z,9.20
2023-01-02T02:52:09.744Z,6.87
2023-01-02T02:55:15.566Z,4.73
2023-01-02T02:58:20.235Z,6.23
2023-01-02T03:01:30.174Z,4.97
2023-01-02T03:04:33.831Z,3.83
2023-01-02T03:07:39.381Z,5.22
2023-01-02T03:10:48.175Z,7.90
2023-01-02T03:14:00.105Z,5.93
2023-01-02T03:17:05.331Z,3.63
2023-01-02T03:20:10.188Z,1.27
2023-01-02T03:23:16.383Z,1.80
2023-01-02T03:26:21.707Z,1.63
2023-01-02T03:29:29.234Z,1.80
2023-01-02T03:32:35.143Z,2.10
2023-01-02T03:35:41.616Z,3.23
2023-01-02T03:38:46.216Z,2.97
2023-01-02T03:41:53.320Z,3.00
2023-01-02T03:44:59.961Z,1.53
2023-01-02T03:48:09.713Z,1.20
2023-01-02T03:51:12.304Z,1.27
2023-01-02T03:54:15.539Z,3.90
2023-01-02T03:57:24.383Z,3.55
2023-01-02T04:00:31.571Z,4.23
2023-01-02T04:03:37.858Z,1.37
2023-01-02T04:06:43.349Z,2.13
2023-01-02T04:09:46.713Z,2.57
2023-01-02T04:12:52.800Z,2.90
2023-01-02T04:15:56.243Z,1.23
2023-01-02T04:19:03.526Z,2.55
2023-01-02T04:22:09.266Z,3.07
2023-01-02T04:25:14.084Z,3.90
2023-01-02T04:28:19.156Z,3.17
2023-01-02T04:31:24.393Z,3.13
2023-01-02T04:34:29.728Z,1.30
2023-01-02T04:37:35.896Z,3.07
2023-01-02T04:40:38.842Z,3.70
2023-01-02T04:43:41.455Z,5.93
2023-01-02T04:46:44.137Z,8.10
2023-01-02T04:49:48.241Z,5.63
2023-01-02T04:52:50.807Z,6.13
2023-01-02T04:55:56.490Z,11.27
2023-01-02T04:58:59.032Z,3.47
2023-01-02T05:02:01.870Z,6.70
2023-01-02T05:05:07.628Z,3.33
2023-01-02T05:08:15.842Z,7.90
2023-01-02T05:11:20.683Z,16.43
2023-01-02T05:14:23.464Z,6.27
2023-01-02T05:17:25.964Z,5.38
2023-01-02T05:20:29.851Z,7.50
2023-01-02T05:23:50.012Z,6.60
2023-01-02T05:26:52.716Z,15.63
2023-01-02T05:29:55.404Z,9.93
2023-01-02T05:32:58.067Z,14.83
2023-01-02T05:36:02.476Z,8.67
2023-01-02T05:39:08.598Z,11.30
2023-01-02T05:42:11.183Z,11.50
2023-01-02T05:45:13.643Z,9.73
2023-01-02T05:48:16.273Z,5.90
2023-01-02T05:51:20.652Z,5.30
2023-01-02T05:54:23.306Z,6.97
2023-01-02T05:57:26.031Z,13.67
2023-01-02T06:00:28.679Z,9.32
2023-01-02T06:03:31.310Z,11.23
2023-01-02T06:06:36.645Z,10.07
2023-01-02T06:09:39.318Z,7.00
2023-01-02T06:12:41.869Z,11.33
2023-01-02T06:18:48.140Z,9.90
2023-01-02T06:21:52.115Z,9.30
2023-01-02T06:24:54.883Z,9.00
2023-01-02T06:27:57.631Z,5.93
2023-01-02T06:31:01.376Z,8.07
2023-01-02T06:37:10.321Z,13.97
2023-01-02T06:40:13.349Z,8.90
2023-01-02T06:43:15.987Z,8.90
2023-01-02T06:46:20.537Z,7.30
2023-01-02T06:49:23.329Z,6.10
2023-01-02T06:52:28.586Z,9.05
2023-01-02T06:55:31.118Z,9.93
2023-01-02T06:58:35.612Z,8.30
2023-01-02T07:01:38.701Z,7.17
2023-01-02T07:04:41.539Z,6.65
2023-01-02T07:07:45.510Z,13.25
2023-01-02T07:10:52.884Z,5.97
2023-01-02T07:13:56.002Z,8.07
2023-01-02T07:16:58.620Z,13.82
2023-01-02T07:20:02.541Z,19.07
2023-01-02T07:23:06.520Z,7.30
2023-01-02T07:26:09.335Z,8.03
2023-01-02T07:29:12.166Z,10.75
2023-01-02T07:32:14.753Z,16.25
2023-01-02T07:35:17.512Z,9.93
2023-01-02T07:38:21.438Z,16.55
2023-01-02T07:41:25.615Z,10.00
2023-01-02T07:44:28.162Z,15.70
2023-01-02T07:47:30.722Z,12.57
2023-01-02T07:50:33.312Z,11.90
2023-01-02T07:53:38.248Z,12.80
2023-01-02T07:56:40.916Z,15.83
2023-01-02T07:59:44.941Z,13.63
2023-01-02T08:02:49.885Z,12.27
2023-01-02T08:05:52.774Z,10.37
2023-01-02T08:08:56.688Z,9.10
2023-01-02T08:11:59.412Z,11.67
2023-01-02T08:15:02.016Z,10.32
2023-01-02T08:18:04.673Z,12.70
2023-01-02T08:21:08.718Z,7.23
2023-01-02T08:24:12.791Z,9.93
2023-01-02T08:27:15.451Z,20.70
2023-01-02T08:30:18.244Z,7.40
2023-01-02T08:33:21.037Z,17.05
2023-01-02T08:36:23.592Z,10.45
2023-01-02T08:39:27.631Z,8.47
2023-01-02T08:42:30.249Z,10.67
2023-01-02T08:45:32.951Z,17.60
2023-01-02T08:48:36.225Z,14.32
2023-01-02T08:51:39.155Z,20.48
2023-01-02T08:54:43.058Z,16.25
2023-01-02T08:57:45.614Z,13.87
2023-01-02T09:00:48.296Z,13.23
2023-01-02T09:03:51.588Z,12.60
2023-01-02T09:06:54.101Z,9.45
2023-01-02T09:09:58.158Z,10.87
2023-01-02T09:13:00.847Z,11.17
2023-01-02T09:16:03.499Z,7.45
2023-01-02T09:19:06.062Z,14.17
2023-01-02T09:22:09.390Z,10.73
2023-01-02T09:25:14.698Z,8.52
2023-01-02T09:28:20.182Z,13.23
2023-01-02T09:31:23.244Z,13.80
2023-01-02T09:34:25.841Z,19.33
2023-01-02T09:37:28.902Z,14.63
2023-01-02T09:40:33.048Z,11.77
2023-01-02T09:43:38.225Z,13.40
2023-01-02T09:46:45.515Z,16.40
2023-01-02T09:49:49.429Z,12.53
2023-01-02T09:52:56.371Z,5.67
2023-01-02T09:56:05.612Z,13.00
2023-01-02T09:59:13.989Z,4.87
2023-01-02T10:02:27.281Z,5.50
2023-01-02T10:06:00.575Z,7.78
2023-01-02T10:09:08.402Z,4.90
2023-01-02T10:12:16.857Z,8.73
2023-01-02T10:15:23.704Z,3.97
2023-01-02T10:18:31.457Z,4.27
2023-01-02T10:21:35.981Z,4.93
2023-01-02T10:24:42.857Z,6.43
2023-01-02T10:27:50.107Z,6.93
2023-01-02T10:30:56.243Z,7.80
2023-01-02T10:34:00.224Z,8.77
2023-01-02T10:37:08.006Z,4.50
2023-01-02T10:40:11.485Z,10.60
2023-01-02T10:43:16.100Z,6.05
2023-01-02T10:46:18.787Z,9.57
2023-01-02T10:49:21.998Z,5.82
2023-01-02T10:52:27.581Z,7.60
2023-01-02T10:55:31.901Z,6.30
2023-01-02T10:58:36.515Z,9.57
2023-01-02T11:01:50.612Z,10.97
2023-01-02T11:04:53.354Z,12.97
2023-01-02T11:07:56.869Z,8.70
2023-01-02T11:11:01.755Z,15.87
2023-01-02T11:14:09.012Z,8.17
2023-01-02T11:17:15.957Z,9.17
2023-01-02T11:20:29.869Z,9.27
2023-01-02T11:23:36.877Z,8.30
2023-01-02T11:26:40.649Z,9.47
2023-01-02T11:29:47.006Z,6.50
2023-01-02T11:33:02.485Z,6.67
2023-01-02T11:36:16.835Z,6.33
2023-01-02T11:39:22.830Z,3.70
2023-01-02T11:42:47.004Z,4.30
2023-01-02T11:45:51.333Z,10.10
2023-01-02T11:48:57.484Z,5.00
2023-01-02T11:52:03.242Z,5.13
2023-01-02T11:55:16.397Z,6.10
2023-01-02T11:58:24.763Z,13.02
2023-01-02T12:01:34.024Z,6.33
2023-01-02T12:04:36.728Z,7.50
2023-01-02T12:07:43.481Z,4.65
2023-01-02T12:10:52.845Z,15.23
2023-01-02T12:14:02.633Z,9.83
2023-01-02T12:17:12.043Z,12.07
2023-01-02T12:20:24.076Z,3.60
2023-01-02T12:23:51.656Z,7.90
2023-01-02T12:27:00.015Z,9.77
2023-01-02T12:30:10.907Z,10.27
2023-01-02T12:33:36.271Z,5.17
2023-01-02T12:36:50.091Z,10.50
2023-01-02T12:40:28.062Z,7.63
2023-01-02T12:43:41.068Z,6.70
2023-01-02T12:47:11.644Z,9.45
2023-01-02T12:50:28.993Z,9.80
2023-01-02T12:54:19.889Z,10.37
2023-01-02T12:57:21.824Z,10.37
2023-01-02T13:00:49.601Z,11.45
2023-01-02T13:03:58.246Z,11.70
2023-01-02T13:07:05.687Z,10.23
2023-01-02T13:10:14.666Z,8.47
2023-01-02T13:13:17.262Z,3.73
2023-01-02T13:16:25.205Z,9.55
2023-01-02T13:19:35.273Z,4.97
2023-01-02T13:22:44.079Z,8.73
2023-01-02T13:25:48.371Z,3.63
2023-01-02T13:28:55.093Z,6.33
2023-01-02T13:31:59.235Z,7.23
2023-01-02T13:35:03.391Z,6.27
2023-01-02T13:38:08.650Z,11.40
2023-01-02T13:41:15.252Z,7.33
2023-01-02T13:44:17.990Z,6.43
2023-01-02T13:47:30.007Z,6.15
2023-01-02T13:50:37.862Z,5.50
2023-01-02T13:53:43.139Z,9.57
2023-01-02T13:57:16.571Z,6.97
2023-01-02T14:00:35.269Z,13.77
2023-01-02T14:03:38.698Z,9.37
2023-01-02T14:06:46.159Z,7.10
2023-01-02T14:10:15.127Z,7.77
2023-01-02T14:13:25.160Z,12.10
2023-01-02T14:16:44.671Z,11.63
2023-01-02T14:19:47.465Z,7.47
2023-01-02T14:22:51.917Z,6.93
2023-01-02T14:25:56.435Z,9.20
2023-01-02T14:29:00.944Z,10.60
2023-01-02T14:32:07.034Z,9.20
2023-01-02T14:35:25.142Z,15.20
2023-01-02T14:38:30.033Z,11.77
2023-01-02T14:42:31.784Z,12.67
2023-01-02T14:45:36.384Z,7.20
2023-01-02T14:48:43.959Z,10.57
2023-01-02T14:51:48.839Z,10.50
2023-01-02T14:54:54.618Z,9.13
2023-01-02T14:57:57.749Z,11.03
2023-01-02T15:01:04.729Z,18.35
2023-01-02T15:04:17.124Z,17.37
2023-01-02T15:07:25.527Z,6.07
2023-01-02T15:10:28.432Z,12.83
2023-01-02T15:13:33.190Z,8.43
2023-01-02T15:17:00.626Z,13.13
2023-01-02T15:20:03.379Z,16.03
2023-01-02T15:23:06.079Z,6.72
2023-01-02T15:26:33.498Z,6.30
2023-01-02T15:29:37.297Z,10.53
2023-01-02T15:32:48.718Z,15.93
2023-01-02T15:35:55.586Z,8.53
2023-01-02T15:39:04.635Z,7.67
2023-01-02T15:42:29.025Z,9.30
2023-01-02T15:45:31.163Z,6.37
2023-01-02T15:48:35.388Z,4.33
2023-01-02T15:51:42.002Z,7.90
2023-01-02T15:54:45.897Z,8.60
2023-01-02T15:57:53.422Z,10.93
2023-01-02T16:01:14.253Z,8.27
2023-01-02T16:04:26.814Z,6.27
2023-01-02T16:07:29.666Z,11.27
2023-01-02T16:10:32.300Z,5.68
2023-01-02T16:13:54.720Z,9.75
2023-01-02T16:17:02.315Z,8.23
2023-01-02T16:20:11.615Z,6.57
2023-01-02T16:23:17.987Z,7.43
2023-01-02T16:26:21.048Z,6.23
2023-01-02T16:29:24.133Z,15.10
2023-01-02T16:32:29.090Z,12.48
2023-01-02T16:35:34.736Z,6.47
2023-01-02T16:38:47.386Z,12.00
2023-01-02T16:42:11.994Z,4.07
2023-01-02T16:45:16.886Z,6.70
2023-01-02T16:48:21.367Z,9.30
2023-01-02T16:51:25.433Z,5.30
2023-01-02T16:54:28.253Z,7.47
2023-01-02T16:57:31.015Z,11.23
2023-01-02T17:00:39.760Z,9.23
2023-01-02T17:03:46.304Z,6.60
2023-01-02T17:06:50.564Z,5.30
2023-01-02T17:09:53.084Z,7.70
2023-01-02T17:12:55.717Z,5.90
2023-01-02T17:15:58.678Z,4.35
2023-01-02T17:19:01.410Z,7.78
2023-01-02T17:22:05.614Z,7.63
2023-01-02T17:25:10.510Z,7.50
2023-01-02T17:28:13.529Z,9.40
2023-01-02T17:31:19.885Z,7.50
2023-01-02T17:34:25.162Z,5.97
2023-01-02T17:37:29.174Z,5.60
2023-01-02T17:40:32.045Z,7.63
2023-01-02T17:43:34.875Z,6.75
2023-01-02T17:50:00.082Z,4.90
2023-01-02T17:53:04.046Z,6.50
2023-01-02T17:56:21.251Z,7.07
2023-01-02T17:59:25.220Z,5.90
2023-01-02T18:02:28.297Z,3.78
2023-01-02T18:05:31.955Z,7.55
2023-01-02T18:11:40.491Z,12.10
2023-01-02T18:14:45.552Z,7.93
2023-01-02T18:17:48.812Z,6.00
2023-01-02T18:20:51.586Z,6.68
2023-01-02T18:23:58.720Z,6.38
2023-01-02T18:27:11.319Z,5.83
2023-01-02T18:30:18.107Z,4.80
2023-01-02T18:33:21.193Z,4.43
2023-01-02T18:36:25.263Z,2.20
2023-01-02T18:39:34.890Z,5.80
2023-01-02T18:42:37.784Z,6.13
2023-01-02T18:45:40.771Z,1.10
2023-01-02T18:48:43.632Z,5.13
2023-01-02T18:51:46.868Z,0.70
2023-01-02T18:54:55.255Z,0.73
2023-01-02T18:58:01.014Z,1.30
2023-01-02T19:01:16.153Z,0.90
2023-01-02T19:04:27.893Z,2.57
2023-01-02T19:07:33.549Z,0.80
2023-01-02T19:10:39.793Z,2.97
2023-01-02T19:13:41.457Z,2.07
2023-01-02T19:16:44.506Z,0.40
2023-01-02T19:19:47.419Z,0.90
2023-01-02T19:22:50.345Z,0.40
2023-01-02T19:25:55.078Z,1.05
2023-01-02T19:29:00.626Z,0.50
2023-01-02T19:32:05.482Z,0.50
2023-01-02T19:35:51.621Z,1.03
2023-01-02T19:38:54.154Z,2.10
2023-01-02T19:42:15.743Z,0.60
2023-01-02T19:45:19.520Z,0.63
2023-01-02T19:48:22.149Z,1.20
2023-01-02T19:51:25.209Z,0.57
2023-01-02T19:54:27.876Z,3.55
2023-01-02T19:57:31.951Z,2.10
2023-01-02T20:00:34.600Z,0.77
2023-01-02T20:03:37.181Z,0.87
2023-01-02T20:06:39.922Z,1.03
2023-01-02T20:09:42.581Z,0.60
2023-01-02T20:12:46.652Z,0.40
2023-01-02T20:15:49.641Z,0.70
2023-01-02T20:18:52.336Z,0.30
2023-01-02T20:21:55.108Z,0.90
2023-01-02T20:24:57.852Z,0.52
2023-01-02T20:28:03.292Z,0.77
2023-01-02T20:31:06.491Z,0.63
2023-01-02T20:34:09.344Z,0.50
2023-01-02T20:37:12.136Z,1.08
2023-01-02T20:40:14.768Z,1.45
2023-01-02T20:43:18.731Z,2.07
2023-01-02T20:46:21.440Z,0.27
2023-01-02T20:49:25.454Z,0.50
2023-01-02T20:52:28.071Z,2.20
2023-01-02T20:55:30.787Z,1.00
2023-01-02T20:58:35.688Z,0.93
2023-01-02T21:01:38.561Z,1.93
2023-01-02T21:04:41.337Z,0.50
2023-01-02T21:07:44.123Z,1.20
2023-01-02T21:10:46.649Z,0.85
2023-01-02T21:13:50.523Z,1.20
2023-01-02T21:16:54.644Z,1.57
2023-01-02T21:19:57.370Z,1.17
2023-01-02T21:22:59.992Z,2.38
2023-01-02T21:26:02.643Z,1.07
2023-01-02T21:29:06.653Z,0.83
2023-01-02T21:32:09.251Z,3.13
2023-01-02T21:35:11.849Z,1.53
2023-01-02T21:38:14.770Z,1.00
2023-01-02T21:41:34.923Z,1.05
2023-01-02T21:44:39.015Z,1.50
2023-01-02T21:47:41.715Z,3.40
2023-01-02T21:50:44.283Z,0.90
2023-01-02T21:53:47.010Z,0.90
2023-01-02T21:56:49.741Z,1.02
2023-01-02T21:59:53.680Z,0.98
2023-01-02T22:02:56.584Z,0.87
2023-01-02T22:05:59.328Z,1.88
2023-01-02T22:09:02.070Z,1.03
2023-01-02T22:12:07.081Z,1.30
2023-01-02T22:15:12.833Z,0.80
2023-01-02T22:18:15.479Z,0.73
2023-01-02T22:21:18.210Z,2.13
2023-01-02T22:24:23.469Z,1.05
2023-01-02T22:27:26.131Z,1.07
2023-01-02T22:30:34.491Z,1.23
2023-01-02T22:33:38.217Z,1.77
2023-01-02T22:36:40.789Z,1.45
2023-01-02T22:39:43.802Z,0.50
2023-01-02T22:43:01.685Z,1.05
2023-01-02T22:46:10.221Z,0.70
2023-01-02T22:49:14.773Z,0.90
2023-01-02T22:52:17.439Z,1.63
2023-01-02T22:55:21.957Z,1.20
2023-01-02T22:58:25.303Z,0.97
2023-01-02T23:01:33.004Z,1.02
2023-01-02T23:04:36.185Z,2.33
2023-01-02T23:07:38.819Z,0.55
2023-01-02T23:10:44.789Z,1.53
2023-01-02T23:13:54.549Z,1.90
2023-01-02T23:17:18.349Z,1.13
2023-01-02T23:20:20.924Z,0.60
2023-01-02T23:23:23.415Z,0.40
2023-01-02T23:26:29.991Z,0.80
2023-01-02T23:29:33.215Z,1.43
2023-01-02T23:32:37.233Z,0.68
2023-01-02T23:35:39.766Z,1.67
2023-01-02T23:38:43.168Z,1.23
2023-01-02T23:41:46.067Z,0.93
2023-01-02T23:44:48.779Z,1.05
2023-01-02T23:47:52.769Z,0.60
2023-01-02T23:50:58.686Z,0.53
2023-01-02T23:54:01.825Z,0.73
2023-01-02T23:57:04.608Z,0.85
